Time;durP1;ratioP1;P1;durP2;ratioP2;P2;SDS_P1;SDS_P2;PMS_P1;PMS_P2;Temp;Humidity;BMP_temperature;BMP_pressure;BME280_temperature;BME280_humidity;BME280_pressure;Samples;Min_cycle;Max_cycle;Signal;HPM_P1;HPM_P2
2021/09/06 00:00:50;;;;;;;11.63;8.63;;;;;;;15.21;63.51;100482.22;10397977;28;20092;-81
2021/09/06 00:05:52;;;;;;;12.15;8.48;;;;;;;15.18;63.67;100484.22;10398837;28;20045;-81
2021/09/06 00:11:09;;;;;;;10.68;8.32;;;;;;;15.12;63.32;100484.66;10397454;28;20093;-82
2021/09/06 00:16:11;;;;;;;11.80;8.90;;;;;;;15.22;63.31;100485.69;10399892;28;20053;-82
2021/09/06 00:21:13;;;;;;;15.38;8.85;;;;;;;15.14;63.38;100486.19;10397088;28;20411;-81
2021/09/06 00:26:14;;;;;;;15.73;9.35;;;;;;;14.99;63.85;100491.72;10397227;28;20049;-81
2021/09/06 00:31:16;;;;;;;11.90;8.88;;;;;;;14.91;63.72;100496.66;10398516;28;20107;-81
2021/09/06 00:36:18;;;;;;;15.57;8.65;;;;;;;14.92;63.95;100496.53;10397175;28;20120;-81
2021/09/06 00:41:20;;;;;;;9.77;7.90;;;;;;;15.06;63.41;100487.72;10397134;28;20459;-82
2021/09/06 00:46:23;;;;;;;11.95;8.55;;;;;;;15.10;63.11;100483.91;10396852;28;20111;-81
2021/09/06 00:51:25;;;;;;;11.82;8.48;;;;;;;15.03;63.19;100487.91;10396165;28;20064;-82
2021/09/06 00:56:27;;;;;;;14.73;9.70;;;;;;;14.91;63.54;100489.59;10396837;28;20375;-82
2021/09/06 01:01:28;;;;;;;12.23;9.10;;;;;;;14.91;63.40;100489.59;10397601;28;20088;-81
2021/09/06 01:06:31;;;;;;;10.57;8.95;;;;;;;14.82;63.59;100494.69;10398109;28;20128;-81
2021/09/06 01:11:33;;;;;;;12.68;8.50;;;;;;;14.85;63.45;100494.44;10396226;28;20080;-81
2021/09/06 01:16:35;;;;;;;13.82;8.65;;;;;;;14.98;63.24;100496.13;10397405;28;20054;-81
2021/09/06 01:21:38;;;;;;;13.13;8.77;;;;;;;14.99;63.04;100491.72;10395454;28;20097;-81
2021/09/06 01:26:40;;;;;;;14.55;8.93;;;;;;;14.94;63.04;100493.84;10395545;28;20392;-81
2021/09/06 01:31:42;;;;;;;12.48;8.70;;;;;;;14.79;63.05;100498.34;10396067;28;20085;-81
2021/09/06 01:36:44;;;;;;;12.73;8.88;;;;;;;14.71;63.36;100492.75;10396239;28;20061;-81
2021/09/06 01:41:45;;;;;;;13.43;8.30;;;;;;;14.74;63.26;100491.69;10396689;28;20122;-82
2021/09/06 01:46:47;;;;;;;13.23;7.88;;;;;;;14.76;63.16;100500.34;10396293;28;20528;-81
2021/09/06 01:51:49;;;;;;;12.80;8.88;;;;;;;14.68;63.21;100505.28;10400005;28;20087;-82
2021/09/06 01:56:51;;;;;;;13.82;8.50;;;;;;;14.66;63.22;100505.38;10403568;28;20132;-81
2021/09/06 02:01:52;;;;;;;12.85;9.88;;;;;;;14.66;63.27;100504.53;10427882;28;20045;-81
2021/09/06 02:06:55;;;;;;;14.07;9.18;;;;;;;14.62;63.29;100497.78;10412238;28;20107;-81
2021/09/06 02:11:56;;;;;;;13.50;9.10;;;;;;;14.55;63.32;100506.09;10400362;28;20360;-81
2021/09/06 02:16:58;;;;;;;12.65;8.45;;;;;;;14.53;63.50;100507.97;10399751;28;20140;-81
2021/09/06 02:22:00;;;;;;;12.60;9.07;;;;;;;14.48;63.38;100506.59;10400434;28;20091;-81
2021/09/06 02:27:02;;;;;;;11.52;9.20;;;;;;;14.37;63.59;100507.28;10397925;28;20049;-82
2021/09/06 02:32:04;;;;;;;12.27;9.20;;;;;;;14.31;63.64;100507.69;10399528;28;20568;-81
2021/09/06 02:37:06;;;;;;;13.55;9.13;;;;;;;14.26;63.77;100507.19;10398644;28;20395;-81
2021/09/06 02:42:07;;;;;;;13.60;8.60;;;;;;;14.18;64.25;100509.47;10397794;28;20065;-81
2021/09/06 02:47:10;;;;;;;9.98;8.20;;;;;;;14.15;64.01;100520.16;10399767;28;20130;-81
2021/09/06 02:52:11;;;;;;;12.10;9.57;;;;;;;14.13;64.26;100518.56;10397925;28;20119;-81
2021/09/06 02:57:13;;;;;;;12.50;8.93;;;;;;;14.09;63.95;100520.56;10400774;28;20089;-80
2021/09/06 03:02:15;;;;;;;12.20;10.13;;;;;;;14.07;63.94;100521.59;10400007;28;20914;-81
2021/09/06 04:39:59;;;;;;;12.13;9.45;;;;;;;12.82;65.56;100546.09;10400487;28;20132;-80
2021/09/06 04:45:01;;;;;;;17.73;12.52;;;;;;;12.64;65.14;100544.53;10398090;28;20049;-80
2021/09/06 04:50:04;;;;;;;12.05;9.70;;;;;;;12.71;65.37;100546.72;10397905;28;20119;-80
2021/09/06 04:55:06;;;;;;;17.67;10.00;;;;;;;12.76;65.58;100551.69;10398747;28;20062;-80
2021/09/06 05:00:11;;;;;;;16.85;9.75;;;;;;;12.82;65.38;100548.72;10396447;28;20069;-80
2021/09/06 05:05:12;;;;;;;63.55;12.05;;;;;;;12.91;65.20;100554.25;10396350;28;20916;-80
2021/09/06 05:10:14;;;;;;;93.47;11.43;;;;;;;12.96;64.79;100557.44;10395234;28;20478;-80
2021/09/06 05:15:16;;;;;;;19.40;8.02;;;;;;;13.09;65.00;100561.97;10395621;28;20089;-81
2021/09/06 05:20:17;;;;;;;13.02;8.55;;;;;;;13.10;64.38;100561.88;10395502;28;20119;-81
2021/09/06 05:25:19;;;;;;;27.20;9.43;;;;;;;12.95;64.39;100560.16;10395145;28;20136;-80
2021/09/06 05:30:22;;;;;;;16.25;7.90;;;;;;;13.12;64.45;100567.88;10397013;28;20167;-80
2021/09/06 05:35:23;;;;;;;12.20;9.10;;;;;;;13.02;64.22;100586.91;10395250;28;20146;-80
2021/09/06 05:40:25;;;;;;;12.77;7.40;;;;;;;13.12;64.49;100581.00;10395260;28;20132;-80
2021/09/06 05:45:27;;;;;;;8.30;6.78;;;;;;;13.34;63.89;100583.19;10395745;28;20085;-81
2021/09/06 05:50:29;;;;;;;10.65;8.00;;;;;;;13.58;63.49;100587.81;10394313;28;20139;-81
2021/09/06 05:55:30;;;;;;;11.30;8.00;;;;;;;13.80;63.17;100581.25;10396489;28;20103;-80
2021/09/06 06:00:32;;;;;;;10.77;7.72;;;;;;;13.98;62.77;100585.34;10396197;28;20182;-80
2021/09/06 06:05:34;;;;;;;10.52;8.10;;;;;;;14.16;62.40;100595.53;10396403;28;20434;-81
2021/09/06 06:10:36;;;;;;;10.90;8.63;;;;;;;14.30;62.21;100592.00;10396432;28;20522;-80
2021/09/06 06:15:38;;;;;;;11.52;7.88;;;;;;;14.45;62.14;100599.75;10395664;28;20475;-81
2021/09/06 06:21:00;;;;;;;8.00;6.07;;;;;;;14.39;61.89;100597.50;10394083;28;20472;-81
2021/09/06 06:26:02;;;;;;;10.88;6.13;;;;;;;14.44;62.12;100605.09;10393937;28;20077;-81
2021/09/06 06:31:22;;;;;;;10.77;6.72;;;;;;;14.61;62.21;100604.03;10393677;28;20503;-81
2021/09/06 06:36:24;;;;;;;9.10;7.13;;;;;;;14.67;61.96;100611.53;10394220;28;20064;-81
2021/09/06 06:41:45;;;;;;;14.10;7.15;;;;;;;14.64;62.16;100612.56;10395250;28;20159;-81
2021/09/06 06:46:47;;;;;;;16.60;10.57;;;;;;;14.76;61.84;100610.94;10394600;28;20089;-80
2021/09/06 06:51:48;;;;;;;14.98;8.88;;;;;;;14.87;61.77;100611.06;10395208;28;20520;-80
2021/09/06 06:56:50;;;;;;;11.73;7.53;;;;;;;15.00;61.74;100611.94;10399548;28;20053;-81
2021/09/06 07:01:53;;;;;;;14.23;8.32;;;;;;;15.24;61.27;100611.13;10403350;28;20061;-80
2021/09/06 07:06:55;;;;;;;17.25;10.30;;;;;;;15.13;61.59;100607.50;10422484;28;20053;-81
2021/09/06 07:12:00;;;;;;;14.95;9.88;;;;;;;15.26;61.57;100614.50;10394103;28;20789;-81
2021/09/06 07:17:02;;;;;;;18.75;9.88;;;;;;;15.47;61.50;100614.78;10400116;28;20057;-80
2021/09/06 07:22:04;;;;;;;12.50;9.25;;;;;;;15.78;61.10;100616.16;10401358;28;20092;-81
2021/09/06 07:27:05;;;;;;;15.02;10.35;;;;;;;16.06;60.46;100613.28;10399963;28;20510;-81
2021/09/06 07:32:08;;;;;;;21.75;12.85;;;;;;;16.13;60.29;100614.50;10400129;28;21130;-81
2021/09/06 07:37:10;;;;;;;22.38;12.35;;;;;;;16.42;59.76;100620.31;10400952;28;20172;-80
2021/09/06 07:42:13;;;;;;;18.95;10.50;;;;;;;17.33;58.07;100625.75;10400375;28;20096;-80
2021/09/06 07:47:14;;;;;;;12.77;7.78;;;;;;;18.06;56.24;100626.13;10392852;28;20054;-80
2021/09/06 07:52:16;;;;;;;14.18;8.15;;;;;;;18.86;54.83;100626.66;10399547;28;20151;-81
2021/09/06 07:57:18;;;;;;;14.15;8.30;;;;;;;19.22;53.99;100620.94;10399303;28;20080;-81
2021/09/06 08:02:20;;;;;;;14.50;8.77;;;;;;;19.57;52.41;100617.94;10399736;28;20062;-81
2021/09/06 08:07:22;;;;;;;13.38;8.32;;;;;;;19.71;52.14;100625.53;10398496;28;20139;-81
2021/09/06 08:12:24;;;;;;;14.13;9.60;;;;;;;20.19;51.29;100629.25;10399688;28;20068;-81
2021/09/06 08:17:26;;;;;;;14.15;9.32;;;;;;;20.36;50.47;100644.53;10396790;28;20192;-81
2021/09/06 08:22:27;;;;;;;12.02;8.70;;;;;;;20.87;49.32;100639.00;10397249;28;20073;-81
2021/09/06 08:27:29;;;;;;;13.05;9.30;;;;;;;21.23;48.13;100648.94;10395167;28;20136;-79
2021/09/06 08:32:31;;;;;;;12.40;9.30;;;;;;;21.25;48.13;100648.78;10398562;28;20085;-82
2021/09/06 08:37:33;;;;;;;13.95;9.35;;;;;;;21.53;47.21;100648.75;10398076;28;20061;-81
2021/09/06 08:42:37;;;;;;;15.10;10.05;;;;;;;21.87;46.37;100646.41;10396287;28;20116;-81
2021/09/06 08:47:47;;;;;;;15.95;10.85;;;;;;;21.66;44.76;100651.13;10412739;28;20054;-83
2021/09/06 08:52:51;;;;;;;;;;;;;;;21.46;45.53;100647.66;10399875;28;20069;-83
2021/09/06 08:58:09;;;;;;;15.43;9.70;;;;;;;21.50;45.95;100645.53;10396940;28;20390;-82
2021/09/06 09:03:11;;;;;;;13.90;10.00;;;;;;;21.80;45.24;100640.00;10396197;28;20448;-82
2021/09/06 09:08:23;;;;;;;16.08;9.85;;;;;;;21.72;45.23;100631.91;10396670;28;20064;-82
2021/09/06 09:13:40;;;;;;;13.40;8.88;;;;;;;22.34;44.42;100628.50;10396356;28;20058;-82
2021/09/06 09:18:42;;;;;;;13.15;9.15;;;;;;;22.91;43.90;100635.28;10398419;28;20062;-82
2021/09/06 09:23:47;;;;;;;14.68;10.13;;;;;;;23.15;43.33;100624.78;10398816;28;20049;-82
2021/09/06 09:28:50;;;;;;;14.27;8.93;;;;;;;23.59;43.04;100621.13;10400660;28;20072;-82
2021/09/06 09:33:54;;;;;;;15.20;9.82;;;;;;;23.65;41.86;100617.84;10411414;28;20077;-82
2021/09/06 09:39:16;;;;;;;13.13;8.60;;;;;;;23.69;40.18;100619.19;10424437;28;20626;-82
2021/09/06 09:44:26;;;;;;;11.75;8.70;;;;;;;23.70;39.74;100620.84;10398373;28;20089;-82
2021/09/06 09:49:31;;;;;;;14.40;8.77;;;;;;;23.91;39.94;100615.94;10396205;28;20061;-83
2021/09/06 09:54:33;;;;;;;12.43;8.57;;;;;;;23.95;40.21;100614.63;10397493;28;20144;-83
2021/09/06 09:59:37;;;;;;;11.02;7.97;;;;;;;24.07;39.34;100613.38;10396253;28;20057;-83
2021/09/06 10:04:56;;;;;;;14.10;8.10;;;;;;;23.85;39.64;100613.91;10394827;28;20053;-83
2021/09/06 10:10:20;;;;;;;21.92;8.70;;;;;;;23.96;39.17;100610.94;10395747;28;20081;-83
2021/09/06 10:15:28;;;;;;;10.30;7.55;;;;;;;24.13;39.40;100604.72;10397693;28;20103;-82
2021/09/06 10:20:36;;;;;;;11.50;7.72;;;;;;;24.48;38.60;100606.28;10395977;28;20103;-83
2021/09/06 10:25:44;;;;;;;11.57;8.03;;;;;;;24.35;39.40;100605.09;10395650;28;20057;-83
2021/09/06 10:30:55;;;;;;;12.10;8.15;;;;;;;24.46;39.82;100600.28;10396717;28;20468;-83
2021/09/06 10:36:21;;;;;;;11.38;7.75;;;;;;;24.37;38.91;100592.41;10394654;28;20152;-83
2021/09/06 10:41:50;;;;;;;12.40;7.38;;;;;;;24.43;38.46;100586.41;10394656;28;20073;-83
2021/09/06 10:47:08;;;;;;;9.07;7.07;;;;;;;24.43;39.26;100583.72;10394421;28;20053;-83
2021/09/06 10:52:11;;;;;;;8.95;6.22;;;;;;;24.54;39.02;100580.72;10392780;28;20565;-83
2021/09/06 10:57:13;;;;;;;8.25;5.13;;;;;;;24.49;38.13;100573.19;10395267;28;20103;-83
2021/09/06 11:02:15;;;;;;;7.57;5.38;;;;;;;24.53;38.25;100571.03;10393223;28;20088;-83
2021/09/06 11:07:18;;;;;;;9.52;5.07;;;;;;;24.66;38.39;100574.88;10393523;28;20050;-82
2021/09/06 11:12:21;;;;;;;8.75;5.57;;;;;;;24.78;37.70;100583.44;10394281;28;20096;-83
2021/09/06 11:17:25;;;;;;;6.38;4.80;;;;;;;25.00;37.53;100575.56;10393788;28;20080;-83
2021/09/06 11:22:28;;;;;;;8.18;5.25;;;;;;;25.03;36.73;100569.91;10394928;28;20093;-82
2021/09/06 11:27:33;;;;;;;7.90;5.35;;;;;;;25.04;36.16;100560.84;10409273;28;20084;-83
2021/09/06 11:32:45;;;;;;;8.45;4.85;;;;;;;25.18;36.15;100553.16;10396074;28;20060;-83
2021/09/06 11:37:49;;;;;;;7.35;4.53;;;;;;;25.29;36.36;100561.66;10393382;28;20554;-83
2021/09/06 11:42:52;;;;;;;6.32;4.30;;;;;;;25.24;35.38;100558.66;10394532;28;20049;-83
2021/09/06 11:48:01;;;;;;;6.15;4.47;;;;;;;25.57;35.09;100556.75;10392653;28;20454;-82
2021/09/06 11:53:09;;;;;;;6.28;4.05;;;;;;;25.59;34.41;100555.56;10395632;28;20084;-82
2021/09/06 11:58:13;;;;;;;7.55;4.40;;;;;;;25.61;35.14;100553.53;10398657;28;20049;-82
2021/09/06 12:03:24;;;;;;;8.05;4.50;;;;;;;25.73;33.87;100552.16;10412749;28;20061;-82
2021/09/06 12:08:25;;;;;;;6.97;4.90;;;;;;;25.77;34.64;100547.28;10425493;28;20057;-82
2021/09/06 12:13:29;;;;;;;7.88;4.93;;;;;;;25.93;34.45;100539.19;10404130;28;20095;-82
2021/09/06 12:18:43;;;;;;;7.90;4.50;;;;;;;26.05;33.87;100540.47;10400672;28;20061;-82
2021/09/06 12:23:48;;;;;;;6.95;4.45;;;;;;;26.26;33.77;100537.97;10400496;28;20128;-82
2021/09/06 12:28:52;;;;;;;8.88;5.38;;;;;;;26.33;34.43;100532.75;10415866;28;20049;-82
2021/09/06 12:33:54;;;;;;;7.05;4.50;;;;;;;26.53;34.70;100523.19;10398797;28;20056;-82
2021/09/06 12:38:56;;;;;;;8.20;4.90;;;;;;;26.87;33.81;100529.00;10398954;28;20057;-83
2021/09/06 12:43:58;;;;;;;5.95;4.53;;;;;;;26.65;33.67;100530.69;10399039;28;20053;-82
2021/09/06 12:49:00;;;;;;;6.78;4.88;;;;;;;26.71;33.59;100528.31;10399583;28;20080;-83
2021/09/06 12:54:02;;;;;;;5.93;4.53;;;;;;;26.99;33.78;100524.00;10398397;28;20079;-83
2021/09/06 12:59:04;;;;;;;9.23;4.75;;;;;;;27.07;33.09;100526.59;10399739;28;20053;-83
2021/09/06 13:04:05;;;;;;;7.78;4.50;;;;;;;27.20;33.10;100516.09;10397610;28;20103;-83
2021/09/06 13:09:07;;;;;;;6.57;4.40;;;;;;;27.45;33.20;100514.78;10397906;28;20068;-83
2021/09/06 13:14:09;;;;;;;7.18;4.60;;;;;;;27.44;32.45;100510.44;10396416;28;20076;-83
2021/09/06 13:19:14;;;;;;;6.13;4.53;;;;;;;27.53;32.51;100506.63;10398080;28;20148;-83
2021/09/06 13:24:16;;;;;;;6.88;4.43;;;;;;;27.71;32.54;100498.19;10397551;28;20146;-83
2021/09/06 13:29:18;;;;;;;9.95;4.43;;;;;;;27.79;32.78;100500.78;10399037;28;20067;-83
2021/09/06 13:34:20;;;;;;;6.80;4.55;;;;;;;28.02;31.84;100496.06;10399077;28;20088;-83
2021/09/06 13:39:22;;;;;;;6.30;4.40;;;;;;;28.13;31.45;100495.59;10397269;28;20988;-83
2021/09/06 13:44:24;;;;;;;6.22;4.05;;;;;;;28.09;31.76;100491.63;10396432;28;20056;-83
2021/09/06 13:49:25;;;;;;;8.10;4.55;;;;;;;28.30;32.05;100488.94;10396672;28;20107;-83
2021/09/06 13:54:27;;;;;;;6.97;4.70;;;;;;;28.19;32.00;100498.34;10396989;28;20142;-83
2021/09/06 13:59:29;;;;;;;9.00;4.90;;;;;;;27.98;32.74;100490.25;10398066;28;20057;-83
2021/09/06 14:04:31;;;;;;;7.15;4.97;;;;;;;27.86;32.82;100490.94;10395911;28;20470;-83
2021/09/06 14:09:34;;;;;;;7.93;4.43;;;;;;;27.92;32.32;100482.94;10395726;28;20081;-84
2021/09/06 14:14:36;;;;;;;5.53;4.22;;;;;;;28.06;31.61;100486.59;10395585;28;20107;-83
2021/09/06 14:19:37;;;;;;;10.38;4.72;;;;;;;28.02;31.19;100482.63;10399510;28;20068;-83
2021/09/06 14:24:39;;;;;;;7.10;4.43;;;;;;;28.07;30.85;100477.53;10397708;28;20541;-83
2021/09/06 14:29:41;;;;;;;9.07;4.32;;;;;;;27.84;31.27;100476.84;10400295;28;20150;-82
2021/09/06 14:34:43;;;;;;;6.20;4.28;;;;;;;27.93;31.56;100478.41;10402647;28;20581;-83
2021/09/06 14:39:45;;;;;;;7.20;4.15;;;;;;;27.68;31.60;100479.72;10422344;28;20092;-83
2021/09/06 14:44:46;;;;;;;6.35;4.20;;;;;;;27.44;32.44;100470.97;10396965;28;20053;-83
2021/09/06 14:49:48;;;;;;;8.30;4.45;;;;;;;27.25;32.85;100473.41;10396289;28;20123;-83
2021/09/06 14:54:50;;;;;;;6.60;4.32;;;;;;;27.24;32.69;100475.25;10392986;28;20513;-83
2021/09/06 14:59:55;;;;;;;5.47;3.90;;;;;;;27.09;33.69;100481.59;10396326;28;20092;-83
2021/09/06 15:04:56;;;;;;;7.20;4.32;;;;;;;27.11;33.38;100479.56;10394528;28;20534;-83
2021/09/06 15:09:58;;;;;;;6.90;4.38;;;;;;;27.12;33.48;100482.06;10393009;28;20057;-83
2021/09/06 15:15:00;;;;;;;6.22;4.50;;;;;;;27.32;33.59;100477.81;10395940;28;20058;-83
2021/09/06 15:20:03;;;;;;;6.55;4.40;;;;;;;27.36;34.06;100472.94;10396150;28;20089;-83
2021/09/06 15:25:06;;;;;;;6.28;4.70;;;;;;;27.19;33.80;100476.81;10395856;28;20130;-83
2021/09/06 15:30:11;;;;;;;9.82;5.07;;;;;;;27.16;34.51;100487.91;10393501;28;20719;-83
2021/09/06 15:35:13;;;;;;;11.07;4.53;;;;;;;27.04;34.67;100474.09;10393944;28;20080;-83
2021/09/06 15:40:15;;;;;;;8.63;4.80;;;;;;;26.74;34.71;100467.03;10400945;28;20089;-83
2021/09/06 15:45:17;;;;;;;6.63;4.60;;;;;;;26.61;34.91;100474.88;10401252;28;20053;-83
2021/09/06 15:50:19;;;;;;;8.48;4.32;;;;;;;26.42;35.48;100475.34;10402458;28;20065;-82
2021/09/06 15:55:20;;;;;;;7.10;4.22;;;;;;;26.41;35.32;100481.72;10400984;28;20130;-83
2021/09/06 16:00:22;;;;;;;6.95;4.13;;;;;;;26.42;34.48;100468.16;10399514;28;20473;-83
2021/09/06 16:05:24;;;;;;;6.45;4.32;;;;;;;26.28;35.17;100474.28;10399905;28;20047;-83
2021/09/06 16:10:26;;;;;;;6.05;4.28;;;;;;;26.43;35.79;100468.97;10400340;28;20092;-83
2021/09/06 16:15:27;;;;;;;7.88;4.60;;;;;;;26.24;35.70;100481.00;10399619;28;20092;-83
2021/09/06 16:20:30;;;;;;;6.45;4.82;;;;;;;26.14;35.88;100479.59;10399428;28;20057;-83
2021/09/06 16:25:32;;;;;;;7.88;4.97;;;;;;;25.85;36.25;100475.72;10399847;28;20058;-83
2021/09/06 16:30:34;;;;;;;6.60;4.68;;;;;;;25.58;36.12;100470.84;10400976;28;20157;-83
2021/09/06 16:35:36;;;;;;;7.20;4.90;;;;;;;25.38;36.80;100479.50;10398992;28;20104;-83
2021/09/06 16:40:37;;;;;;;6.60;4.43;;;;;;;25.41;37.28;100477.28;10400115;28;20176;-83
2021/09/06 16:45:39;;;;;;;6.85;5.10;;;;;;;25.48;37.03;100489.00;10398579;28;20116;-83
2021/09/06 16:50:41;;;;;;;6.68;4.85;;;;;;;25.64;36.29;100485.38;10398723;28;20057;-83
2021/09/06 16:55:45;;;;;;;7.15;4.60;;;;;;;25.35;37.10;100485.16;10398560;28;20626;-83
2021/09/06 17:00:47;;;;;;;5.70;4.10;;;;;;;25.05;36.93;100489.44;10399254;28;20053;-83
2021/09/06 17:05:49;;;;;;;7.80;4.65;;;;;;;24.83;37.87;100490.16;10402975;28;20144;-83
2021/09/06 17:10:50;;;;;;;7.82;4.45;;;;;;;24.61;38.42;100496.16;10413384;28;20057;-84
2021/09/06 17:15:52;;;;;;;8.10;4.70;;;;;;;24.34;39.23;100491.97;10409643;28;20392;-83
2021/09/06 17:20:55;;;;;;;9.20;4.80;;;;;;;24.09;39.74;100496.47;10399100;28;20067;-83
2021/09/06 17:25:56;;;;;;;7.22;5.53;;;;;;;23.99;40.18;100493.06;10399310;28;20061;-83
2021/09/06 17:30:58;;;;;;;13.07;5.95;;;;;;;23.82;41.05;100493.22;10398407;28;20053;-84
2021/09/06 17:36:00;;;;;;;9.82;6.22;;;;;;;23.56;41.78;100495.94;10396958;28;20065;-83
2021/09/06 17:41:02;;;;;;;9.23;5.97;;;;;;;23.34;42.36;100502.66;10396649;28;20150;-83
2021/09/06 17:46:04;;;;;;;7.80;6.15;;;;;;;23.10;42.80;100507.88;10396698;28;20107;-84
2021/09/06 17:51:06;;;;;;;9.35;6.38;;;;;;;22.91;43.90;100510.75;10397133;28;20144;-83
2021/09/06 17:56:07;;;;;;;10.85;6.25;;;;;;;22.62;44.90;100519.00;10396276;28;20071;-83
2021/09/06 18:01:09;;;;;;;8.77;6.10;;;;;;;22.30;45.83;100518.72;10397720;28;20101;-84
2021/09/06 18:06:11;;;;;;;8.57;5.90;;;;;;;22.09;46.34;100523.50;10397259;28;20107;-82
2021/09/06 18:11:13;;;;;;;9.82;6.32;;;;;;;21.93;46.97;100525.94;10398035;28;20395;-83
2021/09/06 18:16:15;;;;;;;8.48;6.18;;;;;;;21.72;47.90;100531.53;10396006;28;20046;-83
2021/09/06 18:21:17;;;;;;;10.73;6.65;;;;;;;21.47;48.51;100534.91;10395133;28;20538;-83
2021/09/06 18:26:19;;;;;;;10.48;6.65;;;;;;;21.34;49.21;100536.19;10395273;28;20072;-83
2021/09/06 18:31:21;;;;;;;11.52;6.95;;;;;;;21.29;49.37;100544.59;10396487;28;20065;-83
2021/09/06 18:36:23;;;;;;;9.38;7.57;;;;;;;21.09;50.09;100548.28;10393847;28;20064;-81
2021/09/06 18:41:25;;;;;;;8.48;6.60;;;;;;;20.92;50.61;100557.00;10395477;28;20064;-83
2021/09/06 18:46:27;;;;;;;10.05;6.93;;;;;;;20.77;51.21;100561.06;10394837;28;20136;-81
2021/09/06 18:51:29;;;;;;;11.00;7.10;;;;;;;20.48;51.62;100558.38;10395224;28;20089;-83
2021/09/06 18:56:30;;;;;;;9.73;7.15;;;;;;;20.34;52.31;100563.31;10394425;28;20506;-83
2021/09/06 19:01:33;;;;;;;10.10;7.22;;;;;;;20.27;52.65;100563.00;10394836;28;20061;-83
2021/09/06 19:12:42;;;;;;;12.77;7.13;;;;;;;20.13;53.21;100564.22;10400322;28;20422;-83
2021/09/06 19:17:46;;;;;;;10.45;7.72;;;;;;;20.11;53.25;100568.03;10402317;28;20053;-83
2021/09/06 19:22:49;;;;;;;13.40;7.82;;;;;;;19.92;53.59;100568.81;10400782;28;20061;-83
2021/09/06 19:27:51;;;;;;;11.82;8.27;;;;;;;19.79;54.20;100577.94;10400891;28;20092;-83
2021/09/06 19:32:53;;;;;;;12.23;7.65;;;;;;;19.83;54.18;100579.38;10404321;28;20061;-83
2021/09/06 19:37:57;;;;;;;12.57;7.43;;;;;;;19.81;54.40;100583.94;10402821;28;20507;-83
2021/09/06 19:42:59;;;;;;;12.70;8.50;;;;;;;19.58;54.87;100587.78;10408558;28;20477;-83
2021/09/06 19:48:01;;;;;;;17.60;8.25;;;;;;;19.51;54.95;100591.94;10437002;28;20525;-83
2021/09/06 19:53:03;;;;;;;12.65;8.23;;;;;;;19.40;54.95;100591.03;10402587;28;20516;-83
2021/09/06 19:58:06;;;;;;;12.30;7.93;;;;;;;19.16;55.80;100590.50;10400165;28;20095;-83
2021/09/06 20:03:08;;;;;;;10.70;7.70;;;;;;;19.03;56.13;100596.97;10402434;28;20053;-83
2021/09/06 20:08:11;;;;;;;14.02;8.68;;;;;;;18.91;56.41;100596.16;10401115;28;20057;-83
2021/09/06 20:13:14;;;;;;;13.63;8.40;;;;;;;18.81;56.66;100612.97;10401853;28;20488;-83
2021/09/06 20:18:16;;;;;;;12.95;8.85;;;;;;;18.54;57.41;100631.97;10401066;28;20132;-83
2021/09/06 20:23:19;;;;;;;12.02;8.95;;;;;;;18.45;57.75;100633.56;10400511;28;20062;-82
2021/09/06 20:28:21;;;;;;;10.07;8.23;;;;;;;18.39;57.97;100631.41;10399800;28;20088;-83
2021/09/06 20:33:23;;;;;;;14.15;8.50;;;;;;;18.35;58.25;100637.91;10401058;28;20492;-83
2021/09/06 20:38:24;;;;;;;11.73;9.05;;;;;;;18.31;58.14;100638.28;10400432;28;20058;-84
2021/09/06 20:43:26;;;;;;;11.10;8.95;;;;;;;18.22;58.54;100646.97;10399687;28;20131;-84
2021/09/06 20:48:28;;;;;;;14.07;8.75;;;;;;;17.95;58.78;100649.13;10398060;28;20103;-84
2021/09/06 20:53:30;;;;;;;15.02;9.38;;;;;;;17.73;59.21;100642.03;10397320;28;20065;-83
2021/09/06 20:58:32;;;;;;;11.55;9.18;;;;;;;17.70;59.54;100648.41;10399363;28;20068;-83
2021/09/06 21:03:35;;;;;;;14.02;8.93;;;;;;;17.71;59.61;100644.78;10399814;28;20577;-83
2021/09/06 21:08:36;;;;;;;15.38;9.77;;;;;;;17.61;59.58;100654.41;10399082;28;20049;-82
2021/09/06 21:13:39;;;;;;;13.27;9.40;;;;;;;17.45;60.13;100659.19;10397263;28;20145;-83
2021/09/06 21:18:41;;;;;;;14.52;10.05;;;;;;;16.92;60.96;100662.38;10395649;28;20403;-83
2021/09/06 21:23:42;;;;;;;11.23;9.23;;;;;;;16.84;61.31;100664.75;10398358;28;20080;-83
2021/09/06 21:28:46;;;;;;;12.63;9.57;;;;;;;16.88;61.14;100666.19;10398890;28;20490;-83
2021/09/06 21:33:48;;;;;;;11.50;9.02;;;;;;;16.97;61.29;100665.53;10397434;28;20119;-82
2021/09/06 21:38:50;;;;;;;16.42;9.68;;;;;;;17.03;61.13;100670.34;10397965;28;20400;-83
2021/09/06 21:43:52;;;;;;;12.45;9.15;;;;;;;16.88;60.81;100666.19;10395739;28;20511;-83
2021/09/06 21:48:54;;;;;;;13.95;9.10;;;;;;;16.78;61.16;100658.13;10393370;28;20077;-82
2021/09/06 21:53:56;;;;;;;16.67;10.98;;;;;;;16.39;61.61;100671.53;10386954;28;20061;-83
2021/09/06 21:58:57;;;;;;;13.68;10.55;;;;;;;16.16;63.08;100675.00;10388358;28;20100;-83
2021/09/06 22:03:59;;;;;;;15.15;9.32;;;;;;;16.34;62.44;100671.06;10390954;28;20131;-83
2021/09/06 22:09:01;;;;;;;12.85;10.32;;;;;;;16.41;62.42;100669.63;10391490;28;20057;-83
2021/09/06 22:14:03;;;;;;;12.90;9.73;;;;;;;16.40;62.04;100672.41;10397109;28;20053;-83
2021/09/06 22:19:05;;;;;;;13.73;10.07;;;;;;;16.43;61.91;100664.25;10412864;28;20589;-83
2021/09/06 22:24:06;;;;;;;14.57;10.23;;;;;;;16.43;62.01;100672.16;10403908;28;20061;-82
2021/09/06 22:29:08;;;;;;;12.95;9.80;;;;;;;16.36;62.14;100673.56;10395090;28;20077;-83
2021/09/06 22:34:10;;;;;;;16.10;12.27;;;;;;;16.03;62.02;100682.09;10394932;28;20098;-83
2021/09/06 22:39:12;;;;;;;14.30;10.23;;;;;;;15.89;63.10;100669.88;10392987;28;20134;-83
2021/09/06 22:44:14;;;;;;;15.10;11.18;;;;;;;15.76;62.47;100668.19;10393474;28;20057;-83
2021/09/06 22:49:17;;;;;;;14.13;9.85;;;;;;;15.72;62.76;100678.09;10393244;28;20064;-82
2021/09/06 22:54:18;;;;;;;13.70;9.82;;;;;;;15.82;62.79;100665.97;10393444;28;20500;-83
2021/09/06 22:59:20;;;;;;;15.82;10.52;;;;;;;15.84;62.66;100671.13;10394947;28;20145;-83
2021/09/06 23:04:22;;;;;;;16.60;10.38;;;;;;;15.77;62.63;100656.69;10393738;28;20140;-83
2021/09/06 23:09:25;;;;;;;15.90;10.48;;;;;;;15.78;62.98;100661.84;10396353;28;20450;-83
2021/09/06 23:14:27;;;;;;;12.82;10.50;;;;;;;15.77;62.59;100660.19;10399304;28;20592;-83
2021/09/06 23:19:29;;;;;;;13.55;11.60;;;;;;;15.66;62.77;100665.34;10401648;28;20054;-83
2021/09/06 23:24:31;;;;;;;15.10;11.18;;;;;;;15.58;63.33;100662.41;10383856;28;20097;-83
2021/09/06 23:29:32;;;;;;;16.63;11.95;;;;;;;15.50;63.34;100653.31;10397028;28;20060;-83
2021/09/06 23:34:34;;;;;;;14.15;10.90;;;;;;;15.46;63.39;100663.22;10397665;28;20065;-82
2021/09/06 23:39:36;;;;;;;16.25;11.50;;;;;;;15.11;63.31;100672.63;10394734;28;20049;-83
2021/09/06 23:44:38;;;;;;;13.75;11.32;;;;;;;15.03;63.63;100674.94;10395982;28;20502;-83
2021/09/06 23:49:40;;;;;;;14.38;10.73;;;;;;;15.13;63.82;100674.22;10394440;28;20064;-82
2021/09/06 23:54:41;;;;;;;15.32;11.57;;;;;;;15.15;63.49;100677.59;10391785;28;20134;-83
2021/09/06 23:59:43;;;;;;;14.18;10.85;;;;;;;15.07;63.61;100665.88;10399862;28;20097;-82
